sensor_id;sensor_type;location;lat;lon;timestamp;P1;durP1;ratioP1;P2;durP2;ratioP2
64500;SDS011;50874;24.150;-110.320;2024-03-06T00:02:19;42.55;;;4.75;;
64500;SDS011;50874;24.150;-110.320;2024-03-06T00:04:46;19.13;;;2.90;;
64500;SDS011;50874;24.150;-110.320;2024-03-06T00:07:12;15.63;;;2.08;;
64500;SDS011;50874;24.150;-110.320;2024-03-06T00:09:39;26.70;;;2.42;;
64500;SDS011;50874;24.150;-110.320;2024-03-06T00:12:05;18.20;;;2.78;;
64500;SDS011;50874;24.150;-110.320;2024-03-06T00:14:32;14.88;;;1.95;;
64500;SDS011;50874;24.150;-110.320;2024-03-06T00:16:58;30.30;;;3.47;;
64500;SDS011;50874;24.150;-110.320;2024-03-06T00:19:25;27.27;;;3.53;;
64500;SDS011;50874;24.150;-110.320;2024-03-06T00:21:51;18.50;;;2.83;;
64500;SDS011;50874;24.150;-110.320;2024-03-06T00:24:18;33.97;;;3.60;;
64500;SDS011;50874;24.150;-110.320;2024-03-06T00:26:44;42.30;;;4.57;;
64500;SDS011;50874;24.150;-110.320;2024-03-06T00:29:12;34.70;;;5.07;;
64500;SDS011;50874;24.150;-110.320;2024-03-06T00:31:43;24.50;;;3.83;;
64500;SDS011;50874;24.150;-110.320;2024-03-06T00:34:10;10.43;;;2.45;;
64500;SDS011;50874;24.150;-110.320;2024-03-06T00:36:40;34.97;;;3.75;;
64500;SDS011;50874;24.150;-110.320;2024-03-06T00:39:09;39.47;;;4.50;;
64500;SDS011;50874;24.150;-110.320;2024-03-06T00:41:36;18.73;;;2.90;;
64500;SDS011;50874;24.150;-110.320;2024-03-06T00:44:03;8.82;;;2.70;;
64500;SDS011;50874;24.150;-110.320;2024-03-06T00:46:29;9.98;;;2.55;;
64500;SDS011;50874;24.150;-110.320;2024-03-06T00:48:56;22.35;;;2.38;;
64500;SDS011;50874;24.150;-110.320;2024-03-06T00:51:22;23.90;;;2.50;;
64500;SDS011;50874;24.150;-110.320;2024-03-06T00:53:49;38.35;;;3.70;;
64500;SDS011;50874;24.150;-110.320;2024-03-06T00:56:15;9.93;;;2.35;;
64500;SDS011;50874;24.150;-110.320;2024-03-06T00:58:42;17.88;;;2.78;;
64500;SDS011;50874;24.150;-110.320;2024-03-06T01:01:08;23.13;;;3.33;;
64500;SDS011;50874;24.150;-110.320;2024-03-06T01:03:35;29.48;;;3.25;;
64500;SDS011;50874;24.150;-110.320;2024-03-06T01:06:04;19.00;;;3.78;;
64500;SDS011;50874;24.150;-110.320;2024-03-06T01:08:30;19.80;;;2.97;;
64500;SDS011;50874;24.150;-110.320;2024-03-06T01:10:57;18.58;;;3.33;;
64500;SDS011;50874;24.150;-110.320;2024-03-06T01:13:23;16.80;;;2.33;;
64500;SDS011;50874;24.150;-110.320;2024-03-06T01:15:50;23.02;;;3.38;;
64500;SDS011;50874;24.150;-110.320;2024-03-06T01:18:17;20.55;;;3.05;;
64500;SDS011;50874;24.150;-110.320;2024-03-06T01:20:43;19.13;;;3.03;;
64500;SDS011;50874;24.150;-110.320;2024-03-06T01:23:10;13.75;;;2.55;;
64500;SDS011;50874;24.150;-110.320;2024-03-06T01:25:36;18.58;;;3.42;;
64500;SDS011;50874;24.150;-110.320;2024-03-06T01:28:03;21.40;;;2.80;;
64500;SDS011;50874;24.150;-110.320;2024-03-06T01:30:29;20.25;;;3.33;;
64500;SDS011;50874;24.150;-110.320;2024-03-06T01:32:56;14.25;;;2.80;;
64500;SDS011;50874;24.150;-110.320;2024-03-06T01:35:23;13.27;;;2.88;;
64500;SDS011;50874;24.150;-110.320;2024-03-06T01:37:50;27.67;;;3.30;;
64500;SDS011;50874;24.150;-110.320;2024-03-06T01:40:16;18.75;;;2.17;;
64500;SDS011;50874;24.150;-110.320;2024-03-06T01:42:43;26.10;;;3.03;;
64500;SDS011;50874;24.150;-110.320;2024-03-06T01:45:11;19.20;;;2.92;;
64500;SDS011;50874;24.150;-110.320;2024-03-06T01:47:38;24.15;;;2.55;;
64500;SDS011;50874;24.150;-110.320;2024-03-06T01:50:05;23.42;;;3.78;;
64500;SDS011;50874;24.150;-110.320;2024-03-06T01:52:35;17.38;;;3.47;;
64500;SDS011;50874;24.150;-110.320;2024-03-06T01:55:03;39.80;;;3.58;;
64500;SDS011;50874;24.150;-110.320;2024-03-06T01:57:30;26.77;;;3.22;;
64500;SDS011;50874;24.150;-110.320;2024-03-06T01:59:58;18.63;;;2.17;;
64500;SDS011;50874;24.150;-110.320;2024-03-06T02:02:24;10.30;;;2.08;;
64500;SDS011;50874;24.150;-110.320;2024-03-06T02:04:52;21.73;;;3.15;;
64500;SDS011;50874;24.150;-110.320;2024-03-06T02:07:20;20.02;;;2.50;;
64500;SDS011;50874;24.150;-110.320;2024-03-06T02:09:46;18.85;;;2.50;;
64500;SDS011;50874;24.150;-110.320;2024-03-06T02:12:14;17.15;;;2.53;;
64500;SDS011;50874;24.150;-110.320;2024-03-06T02:14:41;13.50;;;2.80;;
64500;SDS011;50874;24.150;-110.320;2024-03-06T02:17:08;14.57;;;2.50;;
64500;SDS011;50874;24.150;-110.320;2024-03-06T02:19:41;20.50;;;1.70;;
64500;SDS011;50874;24.150;-110.320;2024-03-06T02:24:35;13.07;;;2.20;;
64500;SDS011;50874;24.150;-110.320;2024-03-06T02:27:03;15.95;;;2.47;;
64500;SDS011;50874;24.150;-110.320;2024-03-06T02:29:33;21.02;;;3.53;;
64500;SDS011;50874;24.150;-110.320;2024-03-06T02:31:59;19.88;;;3.13;;
64500;SDS011;50874;24.150;-110.320;2024-03-06T02:34:29;22.25;;;3.42;;
64500;SDS011;50874;24.150;-110.320;2024-03-06T02:36:55;17.63;;;2.67;;
64500;SDS011;50874;24.150;-110.320;2024-03-06T02:39:22;18.52;;;2.47;;
64500;SDS011;50874;24.150;-110.320;2024-03-06T02:41:49;15.82;;;2.50;;
64500;SDS011;50874;24.150;-110.320;2024-03-06T02:44:16;21.35;;;2.92;;
64500;SDS011;50874;24.150;-110.320;2024-03-06T02:46:46;20.48;;;3.10;;
64500;SDS011;50874;24.150;-110.320;2024-03-06T02:49:16;26.15;;;2.58;;
64500;SDS011;50874;24.150;-110.320;2024-03-06T02:51:43;20.85;;;3.55;;
64500;SDS011;50874;24.150;-110.320;2024-03-06T02:54:10;17.52;;;3.90;;
64500;SDS011;50874;24.150;-110.320;2024-03-06T02:56:37;18.60;;;5.95;;
64500;SDS011;50874;24.150;-110.320;2024-03-06T02:59:03;25.40;;;5.90;;
64500;SDS011;50874;24.150;-110.320;2024-03-06T03:01:30;20.30;;;5.18;;
64500;SDS011;50874;24.150;-110.320;2024-03-06T03:03:56;14.20;;;4.38;;
64500;SDS011;50874;24.150;-110.320;2024-03-06T03:06:23;30.52;;;4.28;;
64500;SDS011;50874;24.150;-110.320;2024-03-06T03:08:50;20.13;;;4.45;;
64500;SDS011;50874;24.150;-110.320;2024-03-06T03:11:16;16.90;;;3.90;;
64500;SDS011;50874;24.150;-110.320;2024-03-06T03:13:43;17.42;;;3.72;;
64500;SDS011;50874;24.150;-110.320;2024-03-06T03:16:18;15.07;;;3.30;;
64500;SDS011;50874;24.150;-110.320;2024-03-06T03:18:45;14.32;;;4.18;;
64500;SDS011;50874;24.150;-110.320;2024-03-06T03:21:13;20.67;;;3.50;;
64500;SDS011;50874;24.150;-110.320;2024-03-06T03:23:40;25.30;;;3.60;;
64500;SDS011;50874;24.150;-110.320;2024-03-06T03:26:07;17.83;;;3.35;;
64500;SDS011;50874;24.150;-110.320;2024-03-06T03:28:37;19.92;;;4.18;;
64500;SDS011;50874;24.150;-110.320;2024-03-06T03:31:07;17.92;;;3.10;;
64500;SDS011;50874;24.150;-110.320;2024-03-06T03:33:34;22.08;;;3.67;;
64500;SDS011;50874;24.150;-110.320;2024-03-06T03:36:05;18.77;;;3.42;;
64500;SDS011;50874;24.150;-110.320;2024-03-06T03:38:33;20.73;;;3.15;;
64500;SDS011;50874;24.150;-110.320;2024-03-06T03:41:08;12.82;;;3.22;;
64500;SDS011;50874;24.150;-110.320;2024-03-06T03:43:35;19.10;;;3.13;;
64500;SDS011;50874;24.150;-110.320;2024-03-06T03:46:02;15.57;;;3.38;;
64500;SDS011;50874;24.150;-110.320;2024-03-06T03:48:29;27.30;;;3.70;;
64500;SDS011;50874;24.150;-110.320;2024-03-06T03:50:56;28.23;;;4.47;;
64500;SDS011;50874;24.150;-110.320;2024-03-06T03:53:23;24.25;;;4.30;;
64500;SDS011;50874;24.150;-110.320;2024-03-06T03:55:49;18.40;;;3.35;;
64500;SDS011;50874;24.150;-110.320;2024-03-06T03:58:16;22.85;;;3.85;;
64500;SDS011;50874;24.150;-110.320;2024-03-06T04:00:42;24.70;;;4.20;;
64500;SDS011;50874;24.150;-110.320;2024-03-06T04:03:09;17.58;;;3.15;;
64500;SDS011;50874;24.150;-110.320;2024-03-06T04:05:36;30.10;;;4.63;;
64500;SDS011;50874;24.150;-110.320;2024-03-06T04:08:02;29.38;;;3.33;;
64500;SDS011;50874;24.150;-110.320;2024-03-06T04:10:31;18.23;;;3.75;;
64500;SDS011;50874;24.150;-110.320;2024-03-06T04:12:58;19.92;;;3.25;;
64500;SDS011;50874;24.150;-110.320;2024-03-06T04:15:25;15.93;;;3.22;;
64500;SDS011;50874;24.150;-110.320;2024-03-06T04:17:52;23.77;;;3.85;;
64500;SDS011;50874;24.150;-110.320;2024-03-06T04:20:18;19.30;;;3.20;;
64500;SDS011;50874;24.150;-110.320;2024-03-06T04:22:45;19.70;;;2.92;;
64500;SDS011;50874;24.150;-110.320;2024-03-06T04:25:13;12.93;;;2.40;;
64500;SDS011;50874;24.150;-110.320;2024-03-06T04:27:39;25.85;;;3.03;;
64500;SDS011;50874;24.150;-110.320;2024-03-06T04:30:06;19.58;;;4.30;;
64500;SDS011;50874;24.150;-110.320;2024-03-06T04:32:34;23.77;;;3.63;;
64500;SDS011;50874;24.150;-110.320;2024-03-06T04:35:01;44.17;;;4.55;;
64500;SDS011;50874;24.150;-110.320;2024-03-06T04:37:27;24.02;;;4.78;;
64500;SDS011;50874;24.150;-110.320;2024-03-06T04:39:54;30.77;;;5.25;;
64500;SDS011;50874;24.150;-110.320;2024-03-06T04:42:21;22.55;;;4.38;;
64500;SDS011;50874;24.150;-110.320;2024-03-06T04:44:47;26.30;;;3.70;;
64500;SDS011;50874;24.150;-110.320;2024-03-06T04:47:14;20.40;;;3.00;;
64500;SDS011;50874;24.150;-110.320;2024-03-06T04:49:40;37.55;;;6.50;;
64500;SDS011;50874;24.150;-110.320;2024-03-06T04:52:07;41.63;;;7.15;;
64500;SDS011;50874;24.150;-110.320;2024-03-06T04:54:34;23.85;;;4.40;;
64500;SDS011;50874;24.150;-110.320;2024-03-06T04:57:01;21.40;;;4.53;;
64500;SDS011;50874;24.150;-110.320;2024-03-06T04:59:28;22.13;;;4.28;;
64500;SDS011;50874;24.150;-110.320;2024-03-06T05:01:57;29.25;;;4.97;;
64500;SDS011;50874;24.150;-110.320;2024-03-06T05:04:24;18.08;;;3.55;;
64500;SDS011;50874;24.150;-110.320;2024-03-06T05:06:50;22.25;;;4.75;;
64500;SDS011;50874;24.150;-110.320;2024-03-06T05:09:17;22.75;;;4.60;;
64500;SDS011;50874;24.150;-110.320;2024-03-06T05:11:43;30.92;;;4.20;;
64500;SDS011;50874;24.150;-110.320;2024-03-06T05:14:09;40.28;;;5.60;;
64500;SDS011;50874;24.150;-110.320;2024-03-06T05:16:36;57.28;;;5.65;;
64500;SDS011;50874;24.150;-110.320;2024-03-06T05:19:03;23.02;;;2.90;;
64500;SDS011;50874;24.150;-110.320;2024-03-06T05:21:30;22.17;;;3.00;;
64500;SDS011;50874;24.150;-110.320;2024-03-06T05:23:56;18.17;;;4.10;;
64500;SDS011;50874;24.150;-110.320;2024-03-06T05:26:23;24.55;;;4.10;;
64500;SDS011;50874;24.150;-110.320;2024-03-06T05:28:49;20.45;;;2.40;;
64500;SDS011;50874;24.150;-110.320;2024-03-06T05:31:16;22.38;;;3.15;;
64500;SDS011;50874;24.150;-110.320;2024-03-06T05:33:48;11.40;;;1.90;;
64500;SDS011;50874;24.150;-110.320;2024-03-06T05:36:15;19.73;;;2.85;;
64500;SDS011;50874;24.150;-110.320;2024-03-06T05:38:43;14.52;;;2.83;;
64500;SDS011;50874;24.150;-110.320;2024-03-06T05:41:10;14.63;;;1.98;;
64500;SDS011;50874;24.150;-110.320;2024-03-06T05:43:37;9.52;;;1.80;;
64500;SDS011;50874;24.150;-110.320;2024-03-06T05:46:03;16.02;;;2.83;;
64500;SDS011;50874;24.150;-110.320;2024-03-06T05:48:30;7.75;;;1.77;;
64500;SDS011;50874;24.150;-110.320;2024-03-06T05:50:58;15.18;;;2.38;;
64500;SDS011;50874;24.150;-110.320;2024-03-06T05:53:25;14.10;;;2.33;;
64500;SDS011;50874;24.150;-110.320;2024-03-06T05:55:51;15.00;;;1.75;;
64500;SDS011;50874;24.150;-110.320;2024-03-06T05:58:18;22.63;;;2.70;;
64500;SDS011;50874;24.150;-110.320;2024-03-06T06:00:45;34.08;;;3.00;;
64500;SDS011;50874;24.150;-110.320;2024-03-06T06:03:11;10.48;;;2.15;;
64500;SDS011;50874;24.150;-110.320;2024-03-06T06:05:38;20.67;;;3.03;;
64500;SDS011;50874;24.150;-110.320;2024-03-06T06:08:05;28.60;;;4.43;;
64500;SDS011;50874;24.150;-110.320;2024-03-06T06:10:32;40.22;;;4.53;;
64500;SDS011;50874;24.150;-110.320;2024-03-06T06:12:58;19.75;;;2.63;;
64500;SDS011;50874;24.150;-110.320;2024-03-06T06:15:25;14.70;;;2.63;;
64500;SDS011;50874;24.150;-110.320;2024-03-06T06:17:52;23.75;;;3.03;;
64500;SDS011;50874;24.150;-110.320;2024-03-06T06:20:18;8.25;;;1.70;;
64500;SDS011;50874;24.150;-110.320;2024-03-06T06:22:45;13.65;;;2.45;;
64500;SDS011;50874;24.150;-110.320;2024-03-06T06:25:11;16.15;;;1.95;;
64500;SDS011;50874;24.150;-110.320;2024-03-06T06:27:38;11.00;;;2.10;;
64500;SDS011;50874;24.150;-110.320;2024-03-06T06:30:04;11.18;;;2.15;;
64500;SDS011;50874;24.150;-110.320;2024-03-06T06:32:40;13.82;;;1.48;;
64500;SDS011;50874;24.150;-110.320;2024-03-06T06:35:07;9.63;;;1.77;;
64500;SDS011;50874;24.150;-110.320;2024-03-06T06:37:35;14.43;;;1.65;;
64500;SDS011;50874;24.150;-110.320;2024-03-06T06:40:01;5.47;;;1.20;;
64500;SDS011;50874;24.150;-110.320;2024-03-06T06:42:34;10.35;;;1.85;;
64500;SDS011;50874;24.150;-110.320;2024-03-06T06:45:01;18.45;;;1.67;;
64500;SDS011;50874;24.150;-110.320;2024-03-06T06:47:28;11.38;;;1.70;;
64500;SDS011;50874;24.150;-110.320;2024-03-06T06:49:55;9.40;;;1.55;;
64500;SDS011;50874;24.150;-110.320;2024-03-06T06:52:23;8.00;;;1.30;;
64500;SDS011;50874;24.150;-110.320;2024-03-06T06:54:53;3.35;;;1.10;;
64500;SDS011;50874;24.150;-110.320;2024-03-06T06:57:19;13.13;;;1.52;;
64500;SDS011;50874;24.150;-110.320;2024-03-06T06:59:45;7.43;;;2.00;;
64500;SDS011;50874;24.150;-110.320;2024-03-06T07:02:12;3.22;;;1.33;;
64500;SDS011;50874;24.150;-110.320;2024-03-06T07:04:38;11.10;;;1.75;;
64500;SDS011;50874;24.150;-110.320;2024-03-06T07:07:05;7.00;;;1.20;;
64500;SDS011;50874;24.150;-110.320;2024-03-06T07:09:31;7.60;;;2.03;;
64500;SDS011;50874;24.150;-110.320;2024-03-06T07:11:59;14.93;;;2.58;;
64500;SDS011;50874;24.150;-110.320;2024-03-06T07:14:26;14.82;;;2.72;;
64500;SDS011;50874;24.150;-110.320;2024-03-06T07:16:52;13.00;;;1.95;;
64500;SDS011;50874;24.150;-110.320;2024-03-06T07:19:19;8.57;;;2.13;;
64500;SDS011;50874;24.150;-110.320;2024-03-06T07:21:45;13.23;;;2.13;;
64500;SDS011;50874;24.150;-110.320;2024-03-06T07:24:12;23.35;;;2.30;;
64500;SDS011;50874;24.150;-110.320;2024-03-06T07:26:39;11.48;;;1.98;;
64500;SDS011;50874;24.150;-110.320;2024-03-06T07:29:05;10.43;;;3.13;;
64500;SDS011;50874;24.150;-110.320;2024-03-06T07:31:38;13.80;;;2.13;;
64500;SDS011;50874;24.150;-110.320;2024-03-06T07:34:06;12.00;;;2.50;;
64500;SDS011;50874;24.150;-110.320;2024-03-06T07:36:34;13.20;;;2.10;;
64500;SDS011;50874;24.150;-110.320;2024-03-06T07:39:01;11.13;;;2.35;;
64500;SDS011;50874;24.150;-110.320;2024-03-06T07:41:28;12.50;;;2.33;;
64500;SDS011;50874;24.150;-110.320;2024-03-06T07:43:54;9.80;;;2.13;;
64500;SDS011;50874;24.150;-110.320;2024-03-06T07:46:21;12.18;;;2.53;;
64500;SDS011;50874;24.150;-110.320;2024-03-06T07:48:47;14.07;;;1.98;;
64500;SDS011;50874;24.150;-110.320;2024-03-06T07:51:14;14.82;;;2.63;;
64500;SDS011;50874;24.150;-110.320;2024-03-06T07:53:41;12.15;;;1.83;;
64500;SDS011;50874;24.150;-110.320;2024-03-06T07:56:09;14.45;;;1.95;;
64500;SDS011;50874;24.150;-110.320;2024-03-06T07:58:39;13.98;;;1.92;;
64500;SDS011;50874;24.150;-110.320;2024-03-06T08:01:06;14.75;;;1.85;;
64500;SDS011;50874;24.150;-110.320;2024-03-06T08:03:33;9.85;;;1.92;;
64500;SDS011;50874;24.150;-110.320;2024-03-06T08:05:59;11.35;;;1.60;;
64500;SDS011;50874;24.150;-110.320;2024-03-06T08:08:27;5.15;;;1.60;;
64500;SDS011;50874;24.150;-110.320;2024-03-06T08:10:53;7.78;;;1.38;;
64500;SDS011;50874;24.150;-110.320;2024-03-06T08:13:20;14.32;;;1.95;;
64500;SDS011;50874;24.150;-110.320;2024-03-06T08:15:46;9.00;;;1.50;;
64500;SDS011;50874;24.150;-110.320;2024-03-06T08:18:13;8.93;;;1.90;;
64500;SDS011;50874;24.150;-110.320;2024-03-06T08:20:40;7.97;;;1.83;;
64500;SDS011;50874;24.150;-110.320;2024-03-06T08:23:07;7.90;;;2.10;;
64500;SDS011;50874;24.150;-110.320;2024-03-06T08:25:35;3.13;;;1.10;;
64500;SDS011;50874;24.150;-110.320;2024-03-06T08:28:01;6.70;;;1.17;;
64500;SDS011;50874;24.150;-110.320;2024-03-06T08:30:31;11.10;;;2.00;;
64500;SDS011;50874;24.150;-110.320;2024-03-06T08:32:58;4.80;;;1.58;;
64500;SDS011;50874;24.150;-110.320;2024-03-06T08:35:24;4.88;;;1.48;;
64500;SDS011;50874;24.150;-110.320;2024-03-06T08:37:51;11.77;;;2.78;;
64500;SDS011;50874;24.150;-110.320;2024-03-06T08:40:18;9.18;;;1.90;;
64500;SDS011;50874;24.150;-110.320;2024-03-06T08:42:44;7.15;;;1.40;;
64500;SDS011;50874;24.150;-110.320;2024-03-06T08:45:12;4.82;;;2.15;;
64500;SDS011;50874;24.150;-110.320;2024-03-06T08:47:42;8.00;;;1.80;;
64500;SDS011;50874;24.150;-110.320;2024-03-06T08:50:10;10.10;;;2.13;;
64500;SDS011;50874;24.150;-110.320;2024-03-06T08:52:38;8.20;;;1.55;;
64500;SDS011;50874;24.150;-110.320;2024-03-06T08:55:06;3.88;;;1.50;;
64500;SDS011;50874;24.150;-110.320;2024-03-06T08:57:33;6.63;;;1.73;;
64500;SDS011;50874;24.150;-110.320;2024-03-06T09:00:01;8.23;;;1.63;;
64500;SDS011;50874;24.150;-110.320;2024-03-06T09:02:28;6.28;;;1.95;;
64500;SDS011;50874;24.150;-110.320;2024-03-06T09:04:54;7.80;;;1.30;;
64500;SDS011;50874;24.150;-110.320;2024-03-06T09:07:21;7.25;;;1.80;;
64500;SDS011;50874;24.150;-110.320;2024-03-06T09:09:51;13.90;;;2.10;;
64500;SDS011;50874;24.150;-110.320;2024-03-06T09:12:17;7.63;;;1.80;;
64500;SDS011;50874;24.150;-110.320;2024-03-06T09:14:44;14.88;;;2.00;;
64500;SDS011;50874;24.150;-110.320;2024-03-06T09:17:11;13.13;;;2.50;;
64500;SDS011;50874;24.150;-110.320;2024-03-06T09:19:41;11.73;;;2.47;;
64500;SDS011;50874;24.150;-110.320;2024-03-06T09:22:07;9.02;;;2.15;;
64500;SDS011;50874;24.150;-110.320;2024-03-06T09:24:34;8.60;;;1.60;;
64500;SDS011;50874;24.150;-110.320;2024-03-06T09:27:04;3.88;;;1.30;;
64500;SDS011;50874;24.150;-110.320;2024-03-06T09:29:31;3.70;;;1.25;;
64500;SDS011;50874;24.150;-110.320;2024-03-06T09:31:57;4.40;;;1.38;;
64500;SDS011;50874;24.150;-110.320;2024-03-06T09:34:24;5.75;;;1.33;;
64500;SDS011;50874;24.150;-110.320;2024-03-06T09:36:51;3.65;;;1.20;;
64500;SDS011;50874;24.150;-110.320;2024-03-06T09:39:18;5.68;;;1.50;;
64500;SDS011;50874;24.150;-110.320;2024-03-06T09:41:46;4.50;;;1.10;;
64500;SDS011;50874;24.150;-110.320;2024-03-06T09:44:13;15.90;;;1.50;;
64500;SDS011;50874;24.150;-110.320;2024-03-06T09:46:43;3.05;;;0.90;;
64500;SDS011;50874;24.150;-110.320;2024-03-06T09:49:11;7.53;;;1.48;;
64500;SDS011;50874;24.150;-110.320;2024-03-06T09:51:46;11.80;;;2.13;;
64500;SDS011;50874;24.150;-110.320;2024-03-06T09:54:19;5.63;;;1.73;;
64500;SDS011;50874;24.150;-110.320;2024-03-06T09:56:48;3.42;;;1.30;;
64500;SDS011;50874;24.150;-110.320;2024-03-06T09:59:15;2.63;;;1.20;;
64500;SDS011;50874;24.150;-110.320;2024-03-06T10:01:54;4.30;;;1.25;;
64500;SDS011;50874;24.150;-110.320;2024-03-06T10:04:23;6.25;;;1.35;;
64500;SDS011;50874;24.150;-110.320;2024-03-06T10:06:57;6.57;;;1.85;;
64500;SDS011;50874;24.150;-110.320;2024-03-06T10:09:25;5.05;;;1.48;;
64500;SDS011;50874;24.150;-110.320;2024-03-06T10:11:52;1.95;;;1.13;;
64500;SDS011;50874;24.150;-110.320;2024-03-06T10:14:21;3.25;;;1.02;;
64500;SDS011;50874;24.150;-110.320;2024-03-06T10:16:55;5.50;;;1.13;;
64500;SDS011;50874;24.150;-110.320;2024-03-06T10:19:25;1.85;;;1.10;;
64500;SDS011;50874;24.150;-110.320;2024-03-06T10:21:53;3.00;;;1.00;;
64500;SDS011;50874;24.150;-110.320;2024-03-06T10:24:21;1.90;;;1.05;;
64500;SDS011;50874;24.150;-110.320;2024-03-06T10:26:51;4.40;;;1.20;;
64500;SDS011;50874;24.150;-110.320;2024-03-06T10:29:20;2.00;;;0.77;;
64500;SDS011;50874;24.150;-110.320;2024-03-06T10:31:54;3.55;;;0.90;;
64500;SDS011;50874;24.150;-110.320;2024-03-06T10:34:22;8.18;;;1.30;;
64500;SDS011;50874;24.150;-110.320;2024-03-06T10:36:59;3.00;;;1.10;;
64500;SDS011;50874;24.150;-110.320;2024-03-06T10:39:32;3.58;;;1.30;;
64500;SDS011;50874;24.150;-110.320;2024-03-06T10:42:03;3.88;;;1.02;;
64500;SDS011;50874;24.150;-110.320;2024-03-06T10:44:34;3.38;;;0.88;;
64500;SDS011;50874;24.150;-110.320;2024-03-06T10:47:02;2.97;;;0.63;;
64500;SDS011;50874;24.150;-110.320;2024-03-06T10:49:31;2.65;;;0.63;;
64500;SDS011;50874;24.150;-110.320;2024-03-06T10:52:00;2.83;;;0.73;;
64500;SDS011;50874;24.150;-110.320;2024-03-06T10:54:34;4.78;;;1.23;;
64500;SDS011;50874;24.150;-110.320;2024-03-06T10:57:04;5.40;;;1.13;;
64500;SDS011;50874;24.150;-110.320;2024-03-06T10:59:31;5.28;;;0.93;;
64500;SDS011;50874;24.150;-110.320;2024-03-06T11:01:58;4.10;;;0.73;;
64500;SDS011;50874;24.150;-110.320;2024-03-06T11:04:29;3.08;;;0.80;;
64500;SDS011;50874;24.150;-110.320;2024-03-06T11:06:59;4.18;;;0.70;;
64500;SDS011;50874;24.150;-110.320;2024-03-06T11:09:27;1.48;;;0.60;;
64500;SDS011;50874;24.150;-110.320;2024-03-06T11:12:01;3.53;;;0.65;;
64500;SDS011;50874;24.150;-110.320;2024-03-06T11:14:30;3.42;;;1.10;;
64500;SDS011;50874;24.150;-110.320;2024-03-06T11:17:04;2.83;;;1.08;;
64500;SDS011;50874;24.150;-110.320;2024-03-06T11:20:07;1.88;;;1.10;;
64500;SDS011;50874;24.150;-110.320;2024-03-06T11:28:19;2.03;;;0.52;;
64500;SDS011;50874;24.150;-110.320;2024-03-06T11:33:16;4.43;;;1.00;;
64500;SDS011;50874;24.150;-110.320;2024-03-06T11:35:43;1.80;;;0.70;;
64500;SDS011;50874;24.150;-110.320;2024-03-06T11:38:29;4.75;;;0.70;;
64500;SDS011;50874;24.150;-110.320;2024-03-06T11:40:55;5.07;;;0.85;;
64500;SDS011;50874;24.150;-110.320;2024-03-06T11:43:24;5.28;;;0.70;;
64500;SDS011;50874;24.150;-110.320;2024-03-06T11:45:52;3.28;;;0.57;;
64500;SDS011;50874;24.150;-110.320;2024-03-06T11:48:19;2.80;;;0.63;;
64500;SDS011;50874;24.150;-110.320;2024-03-06T11:50:47;3.38;;;0.82;;
64500;SDS011;50874;24.150;-110.320;2024-03-06T11:53:16;2.25;;;0.40;;
64500;SDS011;50874;24.150;-110.320;2024-03-06T11:55:45;3.53;;;0.80;;
64500;SDS011;50874;24.150;-110.320;2024-03-06T11:58:12;4.40;;;0.80;;
64500;SDS011;50874;24.150;-110.320;2024-03-06T12:00:38;3.10;;;0.60;;
64500;SDS011;50874;24.150;-110.320;2024-03-06T12:03:05;1.67;;;0.50;;
64500;SDS011;50874;24.150;-110.320;2024-03-06T12:05:31;11.63;;;2.20;;
64500;SDS011;50874;24.150;-110.320;2024-03-06T12:07:59;9.77;;;1.98;;
64500;SDS011;50874;24.150;-110.320;2024-03-06T12:10:26;11.20;;;2.63;;
64500;SDS011;50874;24.150;-110.320;2024-03-06T12:12:52;24.83;;;3.05;;
64500;SDS011;50874;24.150;-110.320;2024-03-06T12:15:18;9.63;;;2.97;;
64500;SDS011;50874;24.150;-110.320;2024-03-06T12:17:48;23.40;;;3.70;;
64500;SDS011;50874;24.150;-110.320;2024-03-06T12:20:17;22.23;;;3.10;;
64500;SDS011;50874;24.150;-110.320;2024-03-06T12:22:44;13.63;;;2.53;;
64500;SDS011;50874;24.150;-110.320;2024-03-06T12:25:20;14.30;;;3.40;;
64500;SDS011;50874;24.150;-110.320;2024-03-06T12:27:51;12.23;;;3.45;;
64500;SDS011;50874;24.150;-110.320;2024-03-06T12:30:19;11.40;;;3.38;;
64500;SDS011;50874;24.150;-110.320;2024-03-06T12:35:31;5.05;;;1.65;;
64500;SDS011;50874;24.150;-110.320;2024-03-06T12:37:57;8.80;;;1.60;;
64500;SDS011;50874;24.150;-110.320;2024-03-06T12:40:24;7.97;;;1.17;;
64500;SDS011;50874;24.150;-110.320;2024-03-06T12:42:53;10.40;;;1.20;;
64500;SDS011;50874;24.150;-110.320;2024-03-06T12:45:20;10.90;;;1.63;;
64500;SDS011;50874;24.150;-110.320;2024-03-06T12:47:46;21.00;;;2.83;;
64500;SDS011;50874;24.150;-110.320;2024-03-06T12:50:14;4.90;;;1.02;;
64500;SDS011;50874;24.150;-110.320;2024-03-06T12:52:41;14.80;;;2.40;;
64500;SDS011;50874;24.150;-110.320;2024-03-06T12:55:11;15.10;;;2.45;;
64500;SDS011;50874;24.150;-110.320;2024-03-06T12:57:39;20.33;;;2.08;;
64500;SDS011;50874;24.150;-110.320;2024-03-06T13:00:06;15.55;;;2.47;;
64500;SDS011;50874;24.150;-110.320;2024-03-06T13:02:43;12.65;;;1.77;;
64500;SDS011;50874;24.150;-110.320;2024-03-06T13:05:10;23.58;;;2.67;;
64500;SDS011;50874;24.150;-110.320;2024-03-06T13:07:38;30.75;;;3.63;;
64500;SDS011;50874;24.150;-110.320;2024-03-06T13:10:07;40.50;;;3.17;;
64500;SDS011;50874;24.150;-110.320;2024-03-06T13:12:36;28.75;;;3.78;;
64500;SDS011;50874;24.150;-110.320;2024-03-06T13:15:05;11.32;;;2.85;;
64500;SDS011;50874;24.150;-110.320;2024-03-06T13:17:35;83.95;;;8.73;;
64500;SDS011;50874;24.150;-110.320;2024-03-06T13:20:01;54.03;;;5.82;;
64500;SDS011;50874;24.150;-110.320;2024-03-06T13:22:28;44.65;;;5.40;;
64500;SDS011;50874;24.150;-110.320;2024-03-06T13:24:55;51.45;;;6.50;;
64500;SDS011;50874;24.150;-110.320;2024-03-06T13:27:22;104.82;;;10.45;;
64500;SDS011;50874;24.150;-110.320;2024-03-06T13:29:49;48.45;;;5.97;;
64500;SDS011;50874;24.150;-110.320;2024-03-06T13:32:16;22.85;;;2.67;;
64500;SDS011;50874;24.150;-110.320;2024-03-06T13:34:43;27.92;;;2.95;;
64500;SDS011;50874;24.150;-110.320;2024-03-06T13:37:09;25.25;;;3.38;;
64500;SDS011;50874;24.150;-110.320;2024-03-06T13:39:36;29.92;;;3.28;;
64500;SDS011;50874;24.150;-110.320;2024-03-06T13:42:04;37.50;;;3.45;;
64500;SDS011;50874;24.150;-110.320;2024-03-06T13:44:31;33.75;;;4.55;;
64500;SDS011;50874;24.150;-110.320;2024-03-06T13:46:57;92.60;;;10.80;;
64500;SDS011;50874;24.150;-110.320;2024-03-06T13:49:37;102.18;;;10.77;;
64500;SDS011;50874;24.150;-110.320;2024-03-06T13:52:08;86.20;;;11.63;;
64500;SDS011;50874;24.150;-110.320;2024-03-06T13:54:44;117.97;;;13.20;;
64500;SDS011;50874;24.150;-110.320;2024-03-06T13:57:11;122.68;;;12.95;;
64500;SDS011;50874;24.150;-110.320;2024-03-06T13:59:38;149.25;;;13.52;;
64500;SDS011;50874;24.150;-110.320;2024-03-06T14:02:05;110.88;;;13.85;;
64500;SDS011;50874;24.150;-110.320;2024-03-06T14:04:32;210.50;;;18.83;;
64500;SDS011;50874;24.150;-110.320;2024-03-06T14:06:59;138.05;;;15.00;;
64500;SDS011;50874;24.150;-110.320;2024-03-06T14:09:26;297.30;;;31.25;;
64500;SDS011;50874;24.150;-110.320;2024-03-06T14:11:52;153.63;;;16.45;;
64500;SDS011;50874;24.150;-110.320;2024-03-06T14:14:19;173.35;;;15.95;;
64500;SDS011;50874;24.150;-110.320;2024-03-06T14:16:46;148.43;;;14.07;;